Latest Weather Observations for Oakey

IDQ60801

Issued at 10:22 pm EST Friday 7 October 2022 (issued every 10 minutes, with the page automatically refreshed every 10 minutes)

About weather observations | Map of weather stations | Latest weather observations for QLD | Other Formats
Station Details ID: 041359 Name: OAKEY AERO Lat: -27.40 Lon: 151.74 Height: 405.69 m
Data from the previous 72 hours. | See also: Recent months at Oakey
Date/Time
EST
Temp
°C
App
Temp
°C
Dew
Point
°C
Rel
Hum
%
Delta-T
°C
Wind Press
QNH
hPa
Press
MSL
hPa
Rain since
9am
mm
Dir  Spd
km/h
Gust
km/h
Spd
kts
Gust
kts
07/10:00pm 16.3 14.6 14.7 90 0.9 ENE 17 20 9 11 1019.3 1018.0 0.0
07/09:30pm 16.6 14.5 14.6 88 1.2 E 19 22 10 12 1019.0 1017.6 0.0
07/09:00pm 16.6 15.2 14.4 87 1.3 ENE 15 19 8 10 1019.1 1017.7 0.0
07/08:30pm 16.8 14.4 14.4 86 1.4 ENE 20 28 11 15 1018.5 1017.1 0.0
07/08:00pm 17.1 14.7 14.4 84 1.6 ENE 20 28 11 15 1018.4 1017.0 0.0
07/07:30pm 17.7 15.3 14.4 81 1.9 ENE 20 28 11 15 1018.4 1017.0 0.0
07/07:00pm 18.0 16.1 14.1 78 2.3 ENE 17 20 9 11 1018.4 1017.0 0.0
07/06:30pm 18.5 16.5 14.0 75 2.6 NE 17 22 9 12 1018.3 1016.9 0.0
07/06:00pm 19.2 16.7 14.0 72 3.0 NE 20 26 11 14 1017.9 1016.6 0.0
07/05:30pm 19.9 16.6 14.0 69 3.5 NE 24 33 13 18 1017.7 1016.4 0.0
07/05:00pm 20.9 17.5 13.8 64 4.2 NE 24 32 13 17 1017.1 1015.8 0.0
07/04:30pm 21.9 18.5 13.8 60 4.8 NE 24 33 13 18 1017.2 1015.9 0.0
07/04:00pm 22.9 18.8 13.7 56 5.4 NE 28 39 15 21 1016.9 1015.5 0.0
07/03:30pm 22.6 19.0 14.2 59 5.0 NE 26 32 14 17 1017.1 1015.8 0.0
07/03:00pm 22.2 18.7 13.5 57 5.1 NE 24 32 13 17 1017.2 1015.9 0.0
07/02:30pm 21.8 17.9 13.4 59 4.9 NE 26 33 14 18 1017.5 1016.2 0.0
07/02:00pm 22.8 19.3 14.4 59 5.0 NE 26 33 14 18 1017.9 1016.6 0.0
07/01:30pm 23.4 20.3 14.4 57 5.4 ENE 24 35 13 19 1018.2 1016.8 0.0
07/01:00pm 22.1 18.2 13.2 57 5.2 NE 26 39 14 21 1018.5 1017.1 0.0
07/12:30pm 23.1 18.8 13.3 54 5.8 NE 28 39 15 21 1018.7 1017.3 0.0
07/12:00pm 22.7 18.9 13.5 56 5.4 NE 26 35 14 19 1019.0 1017.6 0.0
07/11:30am 22.8 18.6 13.6 56 5.4 NE 28 37 15 20 1019.4 1018.1 0.0
07/11:00am 22.5 18.0 12.7 54 5.7 NE 28 41 15 22 1019.8 1018.5 0.0
07/10:30am 22.6 18.6 14.2 59 5.0 NE 28 39 15 21 1020.3 1019.0 0.0
07/10:00am 22.1 19.1 14.7 63 4.4 NE 24 35 13 19 1020.8 1019.4 0.0
07/09:30am 20.5 16.4 13.9 66 3.9 NE 28 39 15 21 1020.9 1019.5 0.0
07/09:00am 19.7 15.6 13.9 69 3.4 NE 28 33 15 18 1021.1 1019.7 0.0
07/08:30am 19.6 15.7 13.3 67 3.7 NE 26 33 14 18 1021.5 1020.2 0.0
07/08:00am 18.1 14.9 14.2 78 2.3 NE 24 32 13 17 1021.4 1020.1 0.0
07/07:30am 18.0 15.5 15.1 83 1.7 ENE 22 35 12 19 1021.1 1019.7 0.0
07/07:00am 17.0 12.9 13.9 82 1.8 ENE 28 35 15 19 1020.8 1019.4 0.0
07/06:30am 15.6 13.7 14.1 91 0.9 ENE 17 20 9 11 1020.8 1019.4 0.0
07/06:00am 14.6 12.7 14.1 97 0.3 ENE 17 20 9 11 1020.4 1019.1 0.0
07/05:30am 13.7 12.2 13.2 97 0.3 NE 13 15 7 8 1020.3 1019.0 0.0
07/05:00am 13.7 11.9 13.2 97 0.3 NE 15 19 8 10 1020.1 1018.8 0.0
07/04:30am 13.2 11.3 12.9 98 0.2 ENE 15 17 8 9 1019.7 1018.4 0.0
07/04:27am 13.1 11.5 12.8 98 0.2 ENE 13 17 7 9 1019.8 1018.5 0.0
07/04:00am 13.1 11.4 12.6 97 0.3 ENE 13 15 7 8 1019.8 1018.5 0.0
07/03:43am 13.4 11.8 12.9 97 0.3 E 13 15 7 8 1019.6 1018.3 0.0
07/03:32am 13.8 12.6 12.9 94 0.5 E 11 13 6 7 1019.6 1018.3 0.0
07/03:30am 14.0 12.4 12.9 93 0.6 E 13 15 7 8 1019.6 1018.3 0.0
07/03:03am 15.1 13.9 14.0 93 0.6 ENE 13 17 7 9 1019.7 1018.4 0.0
07/03:00am 15.1 13.9 14.0 93 0.6 ENE 13 17 7 9 1019.6 1018.3 0.0
07/02:30am 15.5 14.1 14.4 93 0.6 NE 15 17 8 9 1019.8 1018.5 0.0
07/02:00am 15.5 13.7 14.5 94 0.6 ENE 17 22 9 12 1020.2 1018.9 0.0
07/01:30am 15.5 12.7 14.2 92 0.8 ENE 22 28 12 15 1020.1 1018.8 0.0
07/01:00am 15.8 13.3 14.2 90 0.9 ENE 20 28 11 15 1020.4 1019.1 0.0
07/12:30am 15.9 13.6 14.6 92 0.8 ENE 20 26 11 14 1021.0 1019.6 0.0
07/12:00am 15.9 14.3 14.9 94 0.6 ENE 17 20 9 11 1021.5 1020.2 0.0
 
Date/Time
EST
Temp
°C
App
Temp
°C
Dew
Point
°C
Rel
Hum
%
Delta-T
°C
Wind Press
QNH
hPa
Press
MSL
hPa
Rain since
9am
mm
Dir  Spd
km/h
Gust
km/h
Spd
kts
Gust
kts
06/11:46pm 16.0 14.1 15.2 95 0.5 ENE 19 24 10 13 1021.7 1020.4 0.0
06/11:35pm 15.9 14.0 15.3 96 0.4 ENE 19 22 10 12 1021.6 1020.3 0.0
06/11:30pm 15.8 13.9 15.3 97 0.3 ENE 19 24 10 13 1021.6 1020.3 0.0
06/11:00pm 15.8 14.3 15.3 97 0.3 ENE 17 20 9 11 1021.7 1020.4 0.0
06/10:44pm 15.9 14.4 15.4 97 0.3 ENE 17 20 9 11 1021.8 1020.5 0.0
06/10:30pm 16.0 14.0 15.5 97 0.3 ENE 20 24 11 13 1021.9 1020.6 0.0
06/10:16pm 16.1 14.1 15.6 97 0.3 ENE 20 26 11 14 1022.0 1020.7 0.0
06/10:00pm 15.9 14.1 15.4 97 0.3 ENE 19 24 10 13 1022.0 1020.7 0.0
06/09:30pm 15.6 14.9 15.3 98 0.2 ENE 13 17 7 9 1022.0 1020.7 0.0
06/09:00pm 15.7 14.2 15.4 98 0.2 E 17 20 9 11 1022.1 1020.8 0.0
06/08:30pm 15.8 14.0 15.5 98 0.2 E 19 24 10 13 1021.8 1020.5 0.0
06/08:00pm 16.0 14.3 15.7 98 0.2 ENE 19 24 10 13 1021.8 1020.5 0.0
06/07:30pm 16.1 14.3 15.6 97 0.3 E 19 26 10 14 1021.5 1020.2 0.0
06/07:00pm 16.1 14.1 15.6 97 0.3 E 20 26 11 14 1021.2 1019.8 0.0
06/06:30pm 16.1 14.8 15.8 98 0.2 E 17 20 9 11 1021.0 1019.6 0.0
06/06:00pm 16.1 14.2 15.8 98 0.2 E 20 24 11 13 1020.5 1019.2 0.0
06/05:30pm 16.2 14.9 15.9 98 0.2 E 17 22 9 12 1020.4 1019.1 0.0
06/05:00pm 16.2 14.3 15.7 97 0.3 E 20 26 11 14 1020.4 1019.1 0.0
06/04:30pm 16.5 14.9 15.9 96 0.4 E 19 24 10 13 1020.3 1019.0 0.0
06/04:00pm 17.1 15.6 15.4 90 1.0 E 17 22 9 12 1020.1 1018.8 0.0
06/03:30pm 17.4 15.4 15.4 88 1.2 E 20 26 11 14 1019.9 1018.6 0.0
06/03:00pm 17.8 15.5 15.8 88 1.2 E 22 28 12 15 1019.9 1018.6 0.0
06/02:30pm 17.9 15.1 15.3 85 1.5 E 24 30 13 16 1020.0 1018.7 0.0
06/02:00pm 17.8 14.8 16.7 93 0.7 ESE 28 33 15 18 1020.3 1019.0 0.0
06/01:30pm 17.6 15.2 16.5 93 0.7 ESE 24 30 13 16 1020.6 1019.3 0.0
06/01:00pm 18.7 15.8 15.0 79 2.2 E 24 32 13 17 1021.0 1019.6 0.0
06/12:30pm 19.9 17.6 14.7 72 3.1 E 20 26 11 14 1021.2 1019.8 0.0
06/12:00pm 19.5 17.3 14.3 72 3.1 ENE 19 26 10 14 1021.6 1020.3 0.0
06/11:30am 19.6 17.1 14.2 71 3.2 ENE 20 26 11 14 1021.9 1020.6 0.0
06/11:00am 19.7 17.0 14.7 73 3.0 ENE 22 30 12 16 1022.4 1021.1 0.0
06/10:30am 18.9 16.7 14.8 77 2.4 NE 20 30 11 16 1022.7 1021.4 0.0
06/10:00am 18.1 15.9 14.8 81 1.9 ENE 20 26 11 14 1023.0 1021.7 0.0
06/09:30am 17.7 15.1 14.8 83 1.7 ENE 22 28 12 15 1023.0 1021.7 0.0
06/09:27am 17.5 14.8 14.6 83 1.7 ENE 22 28 12 15 1023.0 1021.7 0.0
06/09:00am 17.6 15.4 15.0 85 1.5 ENE 20 28 11 15 1022.9 1021.6 0.0
06/08:30am 16.8 14.2 14.8 88 1.2 ENE 22 30 12 16 1023.0 1021.7 0.0
06/08:00am 16.3 13.7 15.0 92 0.8 NE 22 28 12 15 1022.8 1021.5 0.0
06/07:30am 15.8 13.4 15.3 97 0.3 ENE 22 28 12 15 1022.5 1021.2 0.0
06/07:00am 15.2 13.6 14.9 98 0.2 E 17 20 9 11 1022.7 1021.4 0.0
06/06:34am 14.6 13.5 14.3 98 0.2 ENE 13 17 7 9 1022.6 1021.3 0.0
06/06:30am 14.5 13.4 14.2 98 0.2 ENE 13 17 7 9 1022.5 1021.2 0.0
06/06:00am 14.0 13.1 13.7 98 0.2 ESE 11 13 6 7 1022.4 1021.1 0.0
06/05:30am 13.7 12.3 13.4 98 0.2 E 13 15 7 8 1022.0 1020.7 0.0
06/05:00am 13.7 12.7 13.4 98 0.2 NE 11 13 6 7 1022.0 1020.7 0.0
06/04:38am 13.7 12.3 13.4 98 0.2 NE 13 17 7 9 1021.6 1020.3 0.0
06/04:30am 13.6 12.2 13.3 98 0.2 NE 13 17 7 9 1021.5 1020.2 0.0
06/04:27am 13.6 12.2 13.3 98 0.2 NE 13 15 7 8 1021.5 1020.2 0.0
06/04:00am 13.7 12.3 13.4 98 0.2 E 13 20 7 11 1021.6 1020.3 0.0
06/03:30am 13.8 13.6 13.5 98 0.2 ENE 7 9 4 5 1021.9 1020.6 0.0
06/03:24am 13.9 13.9 13.6 98 0.2 ENE 6 7 3 4 1021.8 1020.5 0.0
06/03:00am 13.8 12.1 13.5 98 0.2 E 15 19 8 10 1021.6 1020.3 0.0
06/02:57am 13.8 11.7 13.5 98 0.2 E 17 20 9 11 1021.6 1020.3 0.0
06/02:30am 13.9 11.8 13.6 98 0.2 ESE 17 24 9 13 1021.6 1020.3 0.0
06/02:00am 14.0 11.5 13.5 97 0.3 E 19 22 10 12 1021.5 1020.2 0.0
06/01:30am 14.3 11.5 13.3 94 0.6 E 20 26 11 14 1022.0 1020.7 0.0
06/01:00am 14.4 11.6 13.1 92 0.7 ENE 20 26 11 14 1022.3 1021.0 0.0
06/12:30am 14.2 11.8 12.8 91 0.8 NE 17 24 9 13 1022.5 1021.2 0.0
06/12:00am 14.3 11.9 12.7 90 0.9 ENE 17 24 9 13 1022.8 1021.5 0.0
 
Date/Time
EST
Temp
°C
App
Temp
°C
Dew
Point
°C
Rel
Hum
%
Delta-T
°C
Wind Press
QNH
hPa
Press
MSL
hPa
Rain since
9am
mm
Dir  Spd
km/h
Gust
km/h
Spd
kts
Gust
kts
05/11:30pm 14.3 11.2 13.3 94 0.6 ENE 22 32 12 17 1022.4 1021.1 0.0
05/11:00pm 14.5 11.4 13.5 94 0.6 ENE 22 28 12 15 1022.4 1021.1 0.0
05/10:30pm 14.9 11.0 13.4 91 0.9 E 26 30 14 16 1022.8 1021.5 0.0
05/10:00pm 14.7 11.6 13.4 92 0.7 ENE 22 32 12 17 1023.2 1021.9 0.0
05/09:30pm 14.7 11.9 13.2 91 0.8 ENE 20 24 11 13 1023.0 1021.7 0.0
05/09:00pm 15.4 12.4 12.5 83 1.6 ENE 20 28 11 15 1023.4 1022.0 0.0
05/08:30pm 15.7 12.8 12.3 80 1.9 ENE 19 24 10 13 1022.9 1021.6 0.0
05/08:00pm 15.9 12.7 11.9 77 2.2 ENE 20 26 11 14 1022.8 1021.5 0.0
05/07:30pm 16.1 12.7 11.3 73 2.6 ENE 20 26 11 14 1022.5 1021.2 0.0
05/07:00pm 16.3 12.0 10.6 69 3.1 ENE 24 30 13 16 1022.0 1020.7 0.0
05/06:30pm 16.4 13.0 11.1 71 2.9 ENE 20 26 11 14 1021.8 1020.5 0.0
05/06:00pm 16.8 13.2 10.6 67 3.4 ENE 20 28 11 15 1021.3 1019.9 0.0
05/05:30pm 17.2 13.8 11.2 68 3.3 ENE 20 24 11 13 1021.7 1020.4 0.0
05/05:00pm 17.8 14.7 11.6 67 3.4 ENE 19 28 10 15 1021.7 1020.4 0.0
05/04:30pm 18.2 14.0 11.0 63 4.0 ENE 24 30 13 16 1021.3 1019.9 0.0
05/04:00pm 18.7 14.2 11.3 62 4.1 ENE 26 33 14 18 1021.0 1019.6 0.0
05/03:30pm 19.7 15.0 10.7 56 5.0 ENE 26 33 14 18 1020.8 1019.4 0.0
05/03:00pm 20.1 14.7 9.4 50 5.8 ENE 28 35 15 19 1020.9 1019.5 0.0
05/02:30pm 20.8 15.5 10.0 50 5.9 ENE 28 35 15 19 1021.0 1019.6 0.0
05/02:00pm 20.2 15.9 10.9 55 5.2 ESE 24 35 13 19 1021.3 1019.9 0.0
05/01:30pm 21.5 17.5 10.6 50 6.1 ENE 22 30 12 16 1021.5 1020.2 0.0
05/01:00pm 20.7 16.9 9.9 50 5.9 ENE 20 30 11 16 1022.0 1020.7 0.0
05/12:30pm 20.2 15.7 10.0 52 5.6 E 24 35 13 19 1022.6 1021.3 0.0
05/12:00pm 20.6 16.7 10.7 53 5.5 E 22 33 12 18 1023.0 1021.7 0.0
05/11:30am 20.7 15.9 10.2 51 5.8 ENE 26 33 14 18 1023.4 1022.0 0.0
05/11:00am 19.7 14.3 9.6 52 5.5 ENE 28 39 15 21 1023.7 1022.4 0.0
05/10:30am 19.2 14.2 9.4 53 5.3 ENE 26 37 14 20 1024.0 1022.7 0.0
05/10:00am 19.0 13.5 9.2 53 5.2 ENE 28 39 15 21 1023.9 1022.6 0.0
05/09:30am 20.5 15.0 10.6 53 5.5 ENE 30 43 16 23 1023.6 1022.3 0.0
05/09:00am 19.1 13.9 10.1 56 4.9 ENE 28 39 15 21 1023.6 1022.3 0.0
05/08:30am 17.7 14.3 12.6 72 2.9 E 22 32 12 17 1023.7 1022.4 0.0
05/08:00am 16.4 12.8 12.0 75 2.4 ENE 22 32 12 17 1024.0 1022.7 0.0
05/07:30am 14.9 12.5 12.6 86 1.3 E 17 20 9 11 1023.8 1022.5 0.0
05/07:00am 13.1 11.2 11.8 92 0.7 ESE 13 15 7 8 1023.9 1022.6 0.0
05/06:30am 11.5 9.0 11.0 97 0.3 E 15 17 8 9 1023.6 1022.3 0.0
05/06:00am 9.8 6.8 9.3 97 0.3 ESE 15 17 8 9 1023.2 1021.9 0.0
05/05:30am 8.5 6.7 8.1 97 0.2 E 7 11 4 6 1023.0 1021.7 0.0
05/05:00am 8.9 6.9 8.5 97 0.2 ENE 9 9 5 5 1022.4 1021.1 0.0
05/04:30am 9.4 7.1 8.9 97 0.3 ENE 11 15 6 8 1022.0 1020.7 0.0
05/04:00am 9.3 6.9 8.8 97 0.2 E 11 13 6 7 1021.7 1020.4 0.0
05/03:30am 9.3 6.6 8.8 97 0.3 ESE 13 15 7 8 1021.7 1020.4 0.0
05/03:00am 9.3 7.3 8.8 97 0.2 E 9 11 5 6 1021.7 1020.4 0.0
05/02:30am 9.9 7.3 9.4 97 0.3 E 13 15 7 8 1021.7 1020.4 0.0
05/02:00am 9.9 6.9 9.4 97 0.3 E 15 17 8 9 1021.7 1020.4 0.0
05/01:30am 10.2 7.7 9.7 97 0.3 SE 13 15 7 8 1021.9 1020.6 0.0
05/01:00am 10.2 8.5 9.7 97 0.3 ESE 9 11 5 6 1022.2 1020.9 0.0
05/12:30am 10.5 8.1 10.0 97 0.3 ESE 13 13 7 7 1022.2 1020.9 0.0
05/12:00am 11.2 8.9 10.4 95 0.4 ESE 13 15 7 8 1022.3 1021.0 0.0
 
Date/Time
EST
Temp
°C
App
Temp
°C
Dew
Point
°C
Rel
Hum
%
Delta-T
°C
Wind Press
QNH
hPa
Press
MSL
hPa
Rain since
9am
mm
Dir  Spd
km/h
Gust
km/h
Spd
kts
Gust
kts
04/11:30pm 11.7 9.4 10.4 92 0.7 NE 13 15 7 8 1022.4 1021.1 0.0
04/11:00pm 12.5 10.4 11.1 91 0.7 E 13 15 7 8 1022.8 1021.5 0.0
04/10:30pm 13.0 10.2 11.4 90 0.9 E 17 19 9 10 1022.7 1021.4 0.0

Other formats

Comma delimited format used in spreadsheet applications
http://www.bom.gov.au/fwo/IDQ60801/IDQ60801.94552.axf

JavaScript Object Notation format (JSON) in row-major order
http://www.bom.gov.au/fwo/IDQ60801/IDQ60801.94552.json

Data quality

Most of these data are generated automatically and are frequently updated. Quality checks on data are not normally performed. It is possible for incorrect values to appear. Refer to information at About Latest Weather Observations and please check the disclaimer before using these data.